sensor_id;sensor_type;location;lat;lon;timestamp;temperature;humidity
1800;DHT22;919;48.274;12.292;2024-01-30T00:00:52;-1.70;99.90
1800;DHT22;919;48.274;12.292;2024-01-30T00:03:19;-1.80;99.90
1800;DHT22;919;48.274;12.292;2024-01-30T00:05:46;-1.90;99.90
1800;DHT22;919;48.274;12.292;2024-01-30T00:08:12;-1.90;99.90
1800;DHT22;919;48.274;12.292;2024-01-30T00:10:41;-2.00;99.90
1800;DHT22;919;48.274;12.292;2024-01-30T00:13:07;-2.10;99.90
1800;DHT22;919;48.274;12.292;2024-01-30T00:15:34;-2.10;99.90
1800;DHT22;919;48.274;12.292;2024-01-30T00:18:01;-2.10;99.90
1800;DHT22;919;48.274;12.292;2024-01-30T00:20:27;-2.20;99.90
1800;DHT22;919;48.274;12.292;2024-01-30T00:22:54;-2.20;99.90
1800;DHT22;919;48.274;12.292;2024-01-30T00:25:22;-2.20;99.90
1800;DHT22;919;48.274;12.292;2024-01-30T00:27:50;-2.20;99.90
1800;DHT22;919;48.274;12.292;2024-01-30T00:30:17;-2.30;99.90
1800;DHT22;919;48.274;12.292;2024-01-30T00:32:44;-2.40;99.90
1800;DHT22;919;48.274;12.292;2024-01-30T00:35:11;-2.50;99.90
1800;DHT22;919;48.274;12.292;2024-01-30T00:37:38;-2.50;99.90
1800;DHT22;919;48.274;12.292;2024-01-30T00:40:05;-2.50;99.90
1800;DHT22;919;48.274;12.292;2024-01-30T00:42:33;-2.40;99.90
1800;DHT22;919;48.274;12.292;2024-01-30T00:45:01;-2.40;99.90
1800;DHT22;919;48.274;12.292;2024-01-30T00:47:27;-2.30;99.90
1800;DHT22;919;48.274;12.292;2024-01-30T00:49:54;-2.40;99.90
1800;DHT22;919;48.274;12.292;2024-01-30T00:52:21;-2.40;99.90
1800;DHT22;919;48.274;12.292;2024-01-30T00:54:48;-2.30;99.90
1800;DHT22;919;48.274;12.292;2024-01-30T00:57:14;-2.20;99.90
1800;DHT22;919;48.274;12.292;2024-01-30T00:59:41;-2.10;99.90
1800;DHT22;919;48.274;12.292;2024-01-30T01:02:09;-2.10;99.90
1800;DHT22;919;48.274;12.292;2024-01-30T01:04:36;-2.10;99.90
1800;DHT22;919;48.274;12.292;2024-01-30T01:07:03;-2.10;99.90
1800;DHT22;919;48.274;12.292;2024-01-30T01:09:30;-2.10;99.90
1800;DHT22;919;48.274;12.292;2024-01-30T01:11:56;-2.10;99.90
1800;DHT22;919;48.274;12.292;2024-01-30T01:14:23;-2.20;99.90
1800;DHT22;919;48.274;12.292;2024-01-30T01:16:50;-2.20;99.90
1800;DHT22;919;48.274;12.292;2024-01-30T01:19:19;-2.30;99.90
1800;DHT22;919;48.274;12.292;2024-01-30T01:21:45;-2.30;99.90
1800;DHT22;919;48.274;12.292;2024-01-30T01:24:12;-2.40;99.90
1800;DHT22;919;48.274;12.292;2024-01-30T01:26:39;-2.30;99.90
1800;DHT22;919;48.274;12.292;2024-01-30T01:29:06;-2.30;99.90
1800;DHT22;919;48.274;12.292;2024-01-30T01:31:35;-2.30;99.90
1800;DHT22;919;48.274;12.292;2024-01-30T01:34:05;-2.30;99.90
1800;DHT22;919;48.274;12.292;2024-01-30T01:36:33;-2.30;99.90
1800;DHT22;919;48.274;12.292;2024-01-30T01:39:00;-2.40;99.90
1800;DHT22;919;48.274;12.292;2024-01-30T01:41:30;-2.30;99.90
1800;DHT22;919;48.274;12.292;2024-01-30T01:43:57;-2.30;99.90
1800;DHT22;919;48.274;12.292;2024-01-30T01:46:26;-2.30;99.90
1800;DHT22;919;48.274;12.292;2024-01-30T01:48:53;-2.30;99.90
1800;DHT22;919;48.274;12.292;2024-01-30T01:51:20;-2.40;99.90
1800;DHT22;919;48.274;12.292;2024-01-30T01:53:49;-2.40;99.90
1800;DHT22;919;48.274;12.292;2024-01-30T01:56:15;-2.50;99.90
1800;DHT22;919;48.274;12.292;2024-01-30T01:58:44;-2.40;99.90
1800;DHT22;919;48.274;12.292;2024-01-30T02:01:13;-2.50;99.90
1800;DHT22;919;48.274;12.292;2024-01-30T02:03:41;-2.60;99.90
1800;DHT22;919;48.274;12.292;2024-01-30T02:06:08;-2.60;99.90
1800;DHT22;919;48.274;12.292;2024-01-30T02:08:36;-2.60;99.90
1800;DHT22;919;48.274;12.292;2024-01-30T02:11:05;-2.50;99.90
1800;DHT22;919;48.274;12.292;2024-01-30T02:13:32;-2.50;99.90
1800;DHT22;919;48.274;12.292;2024-01-30T02:15:58;-2.50;99.90
1800;DHT22;919;48.274;12.292;2024-01-30T02:18:25;-2.50;99.90
1800;DHT22;919;48.274;12.292;2024-01-30T02:20:53;-2.50;99.90
1800;DHT22;919;48.274;12.292;2024-01-30T02:23:22;-2.50;99.90
1800;DHT22;919;48.274;12.292;2024-01-30T02:25:50;-2.50;99.90
1800;DHT22;919;48.274;12.292;2024-01-30T02:28:18;-2.40;99.90
1800;DHT22;919;48.274;12.292;2024-01-30T02:30:46;-2.50;99.90
1800;DHT22;919;48.274;12.292;2024-01-30T02:33:13;-2.50;99.90
1800;DHT22;919;48.274;12.292;2024-01-30T02:35:40;-2.40;99.90
1800;DHT22;919;48.274;12.292;2024-01-30T02:38:06;-2.50;99.90
1800;DHT22;919;48.274;12.292;2024-01-30T02:40:34;-2.50;99.90
1800;DHT22;919;48.274;12.292;2024-01-30T02:43:02;-2.50;99.90
1800;DHT22;919;48.274;12.292;2024-01-30T02:45:29;-2.50;99.90
1800;DHT22;919;48.274;12.292;2024-01-30T02:47:56;-2.50;99.90
1800;DHT22;919;48.274;12.292;2024-01-30T02:50:23;-2.50;99.90
1800;DHT22;919;48.274;12.292;2024-01-30T02:52:49;-2.60;99.90
1800;DHT22;919;48.274;12.292;2024-01-30T02:55:16;-2.70;99.90
1800;DHT22;919;48.274;12.292;2024-01-30T02:57:45;-2.70;99.90
1800;DHT22;919;48.274;12.292;2024-01-30T03:00:13;-2.60;99.90
1800;DHT22;919;48.274;12.292;2024-01-30T03:02:39;-2.60;99.90
1800;DHT22;919;48.274;12.292;2024-01-30T03:05:07;-2.60;99.90
1800;DHT22;919;48.274;12.292;2024-01-30T03:07:34;-2.60;99.90
1800;DHT22;919;48.274;12.292;2024-01-30T03:10:01;-2.70;99.90
1800;DHT22;919;48.274;12.292;2024-01-30T03:12:28;-2.70;99.90
1800;DHT22;919;48.274;12.292;2024-01-30T03:14:56;-2.70;99.90
1800;DHT22;919;48.274;12.292;2024-01-30T03:17:22;-2.70;99.90
1800;DHT22;919;48.274;12.292;2024-01-30T03:19:50;-2.80;99.90
1800;DHT22;919;48.274;12.292;2024-01-30T03:22:17;-2.80;99.90
1800;DHT22;919;48.274;12.292;2024-01-30T03:24:43;-2.80;99.90
1800;DHT22;919;48.274;12.292;2024-01-30T03:27:11;-2.90;99.90
1800;DHT22;919;48.274;12.292;2024-01-30T03:29:38;-2.90;99.90
1800;DHT22;919;48.274;12.292;2024-01-30T03:32:06;-2.90;99.90
1800;DHT22;919;48.274;12.292;2024-01-30T03:34:33;-2.80;99.90
1800;DHT22;919;48.274;12.292;2024-01-30T03:36:59;-2.70;99.90
1800;DHT22;919;48.274;12.292;2024-01-30T03:39:26;-2.80;99.90
1800;DHT22;919;48.274;12.292;2024-01-30T03:41:53;-2.90;99.90
1800;DHT22;919;48.274;12.292;2024-01-30T03:44:20;-2.90;99.90
1800;DHT22;919;48.274;12.292;2024-01-30T03:46:46;-2.90;99.90
1800;DHT22;919;48.274;12.292;2024-01-30T03:49:14;-3.00;99.90
1800;DHT22;919;48.274;12.292;2024-01-30T03:51:41;-3.00;99.90
1800;DHT22;919;48.274;12.292;2024-01-30T03:54:08;-3.00;99.90
1800;DHT22;919;48.274;12.292;2024-01-30T03:56:35;-3.00;99.90
1800;DHT22;919;48.274;12.292;2024-01-30T03:59:02;-3.00;99.90
1800;DHT22;919;48.274;12.292;2024-01-30T04:01:28;-3.00;99.90
1800;DHT22;919;48.274;12.292;2024-01-30T04:03:55;-3.00;99.90
1800;DHT22;919;48.274;12.292;2024-01-30T04:06:23;-2.90;99.90
1800;DHT22;919;48.274;12.292;2024-01-30T04:08:50;-2.90;99.90
1800;DHT22;919;48.274;12.292;2024-01-30T04:11:18;-2.90;99.90
1800;DHT22;919;48.274;12.292;2024-01-30T04:13:45;-2.90;99.90
1800;DHT22;919;48.274;12.292;2024-01-30T04:16:19;-2.90;99.90
1800;DHT22;919;48.274;12.292;2024-01-30T04:18:47;-3.00;99.90
1800;DHT22;919;48.274;12.292;2024-01-30T04:21:13;-3.00;99.90
1800;DHT22;919;48.274;12.292;2024-01-30T04:23:41;-3.10;99.90
1800;DHT22;919;48.274;12.292;2024-01-30T04:26:08;-3.20;99.90
1800;DHT22;919;48.274;12.292;2024-01-30T04:28:35;-3.20;99.90
1800;DHT22;919;48.274;12.292;2024-01-30T04:31:02;-3.20;99.90
1800;DHT22;919;48.274;12.292;2024-01-30T04:33:29;-3.20;99.90
1800;DHT22;919;48.274;12.292;2024-01-30T04:35:55;-3.20;99.90
1800;DHT22;919;48.274;12.292;2024-01-30T04:38:22;-3.10;99.90
1800;DHT22;919;48.274;12.292;2024-01-30T04:40:50;-3.20;99.90
1800;DHT22;919;48.274;12.292;2024-01-30T04:43:17;-3.20;99.90
1800;DHT22;919;48.274;12.292;2024-01-30T04:45:44;-3.20;99.90
1800;DHT22;919;48.274;12.292;2024-01-30T04:48:11;-3.10;99.90
1800;DHT22;919;48.274;12.292;2024-01-30T04:50:38;-3.10;99.90
1800;DHT22;919;48.274;12.292;2024-01-30T04:53:04;-3.20;99.90
1800;DHT22;919;48.274;12.292;2024-01-30T04:55:31;-3.20;99.90
1800;DHT22;919;48.274;12.292;2024-01-30T04:57:59;-3.20;99.90
1800;DHT22;919;48.274;12.292;2024-01-30T05:00:26;-3.20;99.90
1800;DHT22;919;48.274;12.292;2024-01-30T05:02:54;-3.10;99.90
1800;DHT22;919;48.274;12.292;2024-01-30T05:05:21;-3.10;99.90
1800;DHT22;919;48.274;12.292;2024-01-30T05:07:48;-3.10;99.90
1800;DHT22;919;48.274;12.292;2024-01-30T05:10:15;-3.00;99.90
1800;DHT22;919;48.274;12.292;2024-01-30T05:12:42;-3.00;99.90
1800;DHT22;919;48.274;12.292;2024-01-30T05:15:10;-3.00;99.90
1800;DHT22;919;48.274;12.292;2024-01-30T05:17:37;-3.00;99.90
1800;DHT22;919;48.274;12.292;2024-01-30T05:20:05;-3.10;99.90
1800;DHT22;919;48.274;12.292;2024-01-30T05:22:31;-3.10;99.90
1800;DHT22;919;48.274;12.292;2024-01-30T05:24:58;-3.20;99.90
1800;DHT22;919;48.274;12.292;2024-01-30T05:27:25;-3.20;99.90
1800;DHT22;919;48.274;12.292;2024-01-30T05:29:52;-3.30;99.90
1800;DHT22;919;48.274;12.292;2024-01-30T05:32:20;-3.30;99.90
1800;DHT22;919;48.274;12.292;2024-01-30T05:34:46;-3.30;99.90
1800;DHT22;919;48.274;12.292;2024-01-30T05:37:15;-3.30;99.90
1800;DHT22;919;48.274;12.292;2024-01-30T05:39:43;-3.30;99.90
1800;DHT22;919;48.274;12.292;2024-01-30T05:42:10;-3.30;99.90
1800;DHT22;919;48.274;12.292;2024-01-30T05:44:36;-3.30;99.90
1800;DHT22;919;48.274;12.292;2024-01-30T05:47:03;-3.20;99.90
1800;DHT22;919;48.274;12.292;2024-01-30T05:49:31;-3.20;99.90
1800;DHT22;919;48.274;12.292;2024-01-30T05:51:58;-3.20;99.90
1800;DHT22;919;48.274;12.292;2024-01-30T05:54:25;-3.20;99.90
1800;DHT22;919;48.274;12.292;2024-01-30T05:56:51;-3.20;99.90
1800;DHT22;919;48.274;12.292;2024-01-30T05:59:18;-3.20;99.90
1800;DHT22;919;48.274;12.292;2024-01-30T06:01:46;-3.20;99.90
1800;DHT22;919;48.274;12.292;2024-01-30T06:04:13;-3.20;99.90
1800;DHT22;919;48.274;12.292;2024-01-30T06:06:41;-3.20;99.90
1800;DHT22;919;48.274;12.292;2024-01-30T06:09:08;-3.20;99.90
1800;DHT22;919;48.274;12.292;2024-01-30T06:11:34;-3.30;99.90
1800;DHT22;919;48.274;12.292;2024-01-30T06:14:01;-3.30;99.90
1800;DHT22;919;48.274;12.292;2024-01-30T06:16:28;-3.30;99.90
1800;DHT22;919;48.274;12.292;2024-01-30T06:18:55;-3.40;99.90
1800;DHT22;919;48.274;12.292;2024-01-30T06:21:23;-3.40;99.90
1800;DHT22;919;48.274;12.292;2024-01-30T06:23:51;-3.30;99.90
1800;DHT22;919;48.274;12.292;2024-01-30T06:26:18;-3.30;99.90
1800;DHT22;919;48.274;12.292;2024-01-30T06:28:44;-3.30;99.90
1800;DHT22;919;48.274;12.292;2024-01-30T06:31:11;-3.40;99.90
1800;DHT22;919;48.274;12.292;2024-01-30T06:33:38;-3.40;99.90
1800;DHT22;919;48.274;12.292;2024-01-30T06:36:05;-3.40;99.90
1800;DHT22;919;48.274;12.292;2024-01-30T06:38:31;-3.40;99.90
1800;DHT22;919;48.274;12.292;2024-01-30T06:40:59;-3.40;99.90
1800;DHT22;919;48.274;12.292;2024-01-30T06:43:26;-3.40;99.90
1800;DHT22;919;48.274;12.292;2024-01-30T06:45:53;-3.40;99.90
1800;DHT22;919;48.274;12.292;2024-01-30T06:48:20;-3.50;99.90
1800;DHT22;919;48.274;12.292;2024-01-30T06:50:46;-3.50;99.90
1800;DHT22;919;48.274;12.292;2024-01-30T06:53:14;-3.50;99.90
1800;DHT22;919;48.274;12.292;2024-01-30T06:55:41;-3.50;99.90
1800;DHT22;919;48.274;12.292;2024-01-30T06:58:09;-3.50;99.90
1800;DHT22;919;48.274;12.292;2024-01-30T07:00:36;-3.40;99.90
1800;DHT22;919;48.274;12.292;2024-01-30T07:03:03;-3.40;99.90
1800;DHT22;919;48.274;12.292;2024-01-30T07:05:30;-3.30;99.90
1800;DHT22;919;48.274;12.292;2024-01-30T07:07:56;-3.20;99.90
1800;DHT22;919;48.274;12.292;2024-01-30T07:10:23;-3.10;99.90
1800;DHT22;919;48.274;12.292;2024-01-30T07:12:50;-3.10;99.90
1800;DHT22;919;48.274;12.292;2024-01-30T07:15:18;-3.00;99.90
1800;DHT22;919;48.274;12.292;2024-01-30T07:17:45;-3.00;99.90
1800;DHT22;919;48.274;12.292;2024-01-30T07:20:12;-2.90;99.90
1800;DHT22;919;48.274;12.292;2024-01-30T07:22:40;-2.90;99.90
1800;DHT22;919;48.274;12.292;2024-01-30T07:25:07;-2.90;99.90
1800;DHT22;919;48.274;12.292;2024-01-30T07:27:34;-2.80;99.90
1800;DHT22;919;48.274;12.292;2024-01-30T07:30:02;-2.80;99.90
1800;DHT22;919;48.274;12.292;2024-01-30T07:32:30;-2.80;99.90
1800;DHT22;919;48.274;12.292;2024-01-30T07:34:57;-2.70;99.90
1800;DHT22;919;48.274;12.292;2024-01-30T07:37:24;-2.70;99.90
1800;DHT22;919;48.274;12.292;2024-01-30T07:39:50;-2.60;99.90
1800;DHT22;919;48.274;12.292;2024-01-30T07:42:17;-2.40;99.90
1800;DHT22;919;48.274;12.292;2024-01-30T07:44:44;-2.30;99.90
1800;DHT22;919;48.274;12.292;2024-01-30T07:47:10;-2.20;99.90
1800;DHT22;919;48.274;12.292;2024-01-30T07:49:38;-2.10;99.90
1800;DHT22;919;48.274;12.292;2024-01-30T07:52:05;-2.00;99.90
1800;DHT22;919;48.274;12.292;2024-01-30T07:54:32;-1.90;99.90
1800;DHT22;919;48.274;12.292;2024-01-30T07:57:00;-1.80;99.90
1800;DHT22;919;48.274;12.292;2024-01-30T07:59:27;-1.70;99.90
1800;DHT22;919;48.274;12.292;2024-01-30T08:01:54;-1.60;99.90
1800;DHT22;919;48.274;12.292;2024-01-30T08:04:20;-1.50;99.90
1800;DHT22;919;48.274;12.292;2024-01-30T08:06:49;-1.40;99.90
1800;DHT22;919;48.274;12.292;2024-01-30T08:09:15;-1.40;99.90
1800;DHT22;919;48.274;12.292;2024-01-30T08:11:42;-1.30;99.90
1800;DHT22;919;48.274;12.292;2024-01-30T08:14:09;-1.20;99.90
1800;DHT22;919;48.274;12.292;2024-01-30T08:16:35;-1.10;99.90
1800;DHT22;919;48.274;12.292;2024-01-30T08:19:03;-1.00;99.90
1800;DHT22;919;48.274;12.292;2024-01-30T08:21:29;-0.90;99.90
1800;DHT22;919;48.274;12.292;2024-01-30T08:24:03;-0.80;99.90
1800;DHT22;919;48.274;12.292;2024-01-30T08:26:29;-0.60;99.90
1800;DHT22;919;48.274;12.292;2024-01-30T08:28:56;-0.50;99.90
1800;DHT22;919;48.274;12.292;2024-01-30T08:31:23;-0.50;99.90
1800;DHT22;919;48.274;12.292;2024-01-30T08:33:50;-0.40;99.90
1800;DHT22;919;48.274;12.292;2024-01-30T08:36:17;-0.30;99.90
1800;DHT22;919;48.274;12.292;2024-01-30T08:38:44;-0.30;99.90
1800;DHT22;919;48.274;12.292;2024-01-30T08:41:12;-0.30;99.90
1800;DHT22;919;48.274;12.292;2024-01-30T08:43:38;-0.10;99.90
1800;DHT22;919;48.274;12.292;2024-01-30T08:46:05;0.00;99.90
1800;DHT22;919;48.274;12.292;2024-01-30T08:48:32;0.10;99.90
1800;DHT22;919;48.274;12.292;2024-01-30T08:50:58;0.20;99.90
1800;DHT22;919;48.274;12.292;2024-01-30T08:53:25;0.30;99.90
1800;DHT22;919;48.274;12.292;2024-01-30T08:55:52;0.30;99.90
1800;DHT22;919;48.274;12.292;2024-01-30T08:58:20;0.50;99.90
1800;DHT22;919;48.274;12.292;2024-01-30T09:00:46;0.60;99.90
1800;DHT22;919;48.274;12.292;2024-01-30T09:03:13;0.70;99.90
1800;DHT22;919;48.274;12.292;2024-01-30T09:05:40;0.80;99.90
1800;DHT22;919;48.274;12.292;2024-01-30T09:08:07;0.90;99.90
1800;DHT22;919;48.274;12.292;2024-01-30T09:10:33;1.00;99.90
1800;DHT22;919;48.274;12.292;2024-01-30T09:13:00;1.10;99.90
1800;DHT22;919;48.274;12.292;2024-01-30T09:15:28;1.10;99.90
1800;DHT22;919;48.274;12.292;2024-01-30T09:17:55;1.20;99.90
1800;DHT22;919;48.274;12.292;2024-01-30T09:20:22;1.40;99.90
1800;DHT22;919;48.274;12.292;2024-01-30T09:22:48;1.60;99.90
1800;DHT22;919;48.274;12.292;2024-01-30T09:25:15;1.70;99.90
1800;DHT22;919;48.274;12.292;2024-01-30T09:27:44;1.70;99.90
1800;DHT22;919;48.274;12.292;2024-01-30T09:30:11;1.80;99.90
1800;DHT22;919;48.274;12.292;2024-01-30T09:32:41;1.90;99.90
1800;DHT22;919;48.274;12.292;2024-01-30T09:35:09;1.90;99.90
1800;DHT22;919;48.274;12.292;2024-01-30T09:37:35;2.00;99.90
1800;DHT22;919;48.274;12.292;2024-01-30T09:40:02;2.10;99.90
1800;DHT22;919;48.274;12.292;2024-01-30T09:42:34;2.20;99.90
1800;DHT22;919;48.274;12.292;2024-01-30T09:45:01;2.20;99.90
1800;DHT22;919;48.274;12.292;2024-01-30T09:47:31;2.40;99.90
1800;DHT22;919;48.274;12.292;2024-01-30T09:50:00;2.50;99.90
1800;DHT22;919;48.274;12.292;2024-01-30T09:52:28;2.60;99.90
1800;DHT22;919;48.274;12.292;2024-01-30T09:54:55;2.80;99.90
1800;DHT22;919;48.274;12.292;2024-01-30T09:57:22;2.90;99.90
1800;DHT22;919;48.274;12.292;2024-01-30T09:59:49;3.00;99.90
1800;DHT22;919;48.274;12.292;2024-01-30T10:02:18;3.00;99.90
1800;DHT22;919;48.274;12.292;2024-01-30T10:04:47;3.00;99.90
1800;DHT22;919;48.274;12.292;2024-01-30T10:07:16;3.20;99.90
1800;DHT22;919;48.274;12.292;2024-01-30T10:09:42;3.20;99.90
1800;DHT22;919;48.274;12.292;2024-01-30T10:12:09;3.40;99.90
1800;DHT22;919;48.274;12.292;2024-01-30T10:14:38;3.50;99.90
1800;DHT22;919;48.274;12.292;2024-01-30T10:17:05;3.70;99.90
1800;DHT22;919;48.274;12.292;2024-01-30T10:19:32;3.80;99.90
1800;DHT22;919;48.274;12.292;2024-01-30T10:22:00;4.00;99.90
1800;DHT22;919;48.274;12.292;2024-01-30T10:24:28;4.20;99.90
1800;DHT22;919;48.274;12.292;2024-01-30T10:26:55;4.40;99.90
1800;DHT22;919;48.274;12.292;2024-01-30T10:29:22;4.60;99.90
1800;DHT22;919;48.274;12.292;2024-01-30T10:31:58;4.70;99.90
1800;DHT22;919;48.274;12.292;2024-01-30T10:34:25;4.90;99.90
1800;DHT22;919;48.274;12.292;2024-01-30T10:36:58;5.10;99.90
1800;DHT22;919;48.274;12.292;2024-01-30T10:39:30;5.20;99.90
1800;DHT22;919;48.274;12.292;2024-01-30T10:42:03;5.30;99.90
1800;DHT22;919;48.274;12.292;2024-01-30T10:44:36;5.30;99.90
1800;DHT22;919;48.274;12.292;2024-01-30T10:47:06;5.20;99.90
1800;DHT22;919;48.274;12.292;2024-01-30T10:49:36;5.20;99.90
1800;DHT22;919;48.274;12.292;2024-01-30T10:52:04;5.20;99.90
1800;DHT22;919;48.274;12.292;2024-01-30T10:54:34;5.20;99.90
1800;DHT22;919;48.274;12.292;2024-01-30T10:57:01;5.30;99.90
1800;DHT22;919;48.274;12.292;2024-01-30T10:59:30;5.40;99.90
1800;DHT22;919;48.274;12.292;2024-01-30T11:01:57;5.50;99.90
1800;DHT22;919;48.274;12.292;2024-01-30T11:04:25;5.50;99.90
1800;DHT22;919;48.274;12.292;2024-01-30T11:06:52;5.60;99.90
1800;DHT22;919;48.274;12.292;2024-01-30T11:09:19;5.60;99.90
1800;DHT22;919;48.274;12.292;2024-01-30T11:11:52;5.70;99.90
1800;DHT22;919;48.274;12.292;2024-01-30T11:14:23;5.70;99.90
1800;DHT22;919;48.274;12.292;2024-01-30T11:16:51;5.60;99.90
1800;DHT22;919;48.274;12.292;2024-01-30T11:19:22;5.70;99.90
1800;DHT22;919;48.274;12.292;2024-01-30T11:21:50;5.80;99.90
1800;DHT22;919;48.274;12.292;2024-01-30T11:24:19;5.90;99.90
1800;DHT22;919;48.274;12.292;2024-01-30T11:26:48;5.90;99.90
1800;DHT22;919;48.274;12.292;2024-01-30T11:29:16;6.10;99.90
1800;DHT22;919;48.274;12.292;2024-01-30T11:31:51;6.20;99.90
1800;DHT22;919;48.274;12.292;2024-01-30T11:34:20;6.30;99.90
1800;DHT22;919;48.274;12.292;2024-01-30T11:36:51;6.40;99.90
1800;DHT22;919;48.274;12.292;2024-01-30T11:39:20;6.50;99.90
1800;DHT22;919;48.274;12.292;2024-01-30T11:41:48;6.60;99.90
1800;DHT22;919;48.274;12.292;2024-01-30T11:44:18;6.70;99.90
1800;DHT22;919;48.274;12.292;2024-01-30T11:46:46;6.90;99.90
1800;DHT22;919;48.274;12.292;2024-01-30T11:49:13;6.90;99.90
1800;DHT22;919;48.274;12.292;2024-01-30T11:51:39;6.80;99.90
1800;DHT22;919;48.274;12.292;2024-01-30T11:54:07;6.70;99.90
1800;DHT22;919;48.274;12.292;2024-01-30T11:56:34;6.60;99.90
1800;DHT22;919;48.274;12.292;2024-01-30T11:59:01;6.50;99.90
1800;DHT22;919;48.274;12.292;2024-01-30T12:01:29;6.50;99.90
1800;DHT22;919;48.274;12.292;2024-01-30T12:03:56;6.70;99.90
1800;DHT22;919;48.274;12.292;2024-01-30T12:06:23;6.80;99.90
1800;DHT22;919;48.274;12.292;2024-01-30T12:08:57;6.90;99.90
1800;DHT22;919;48.274;12.292;2024-01-30T12:11:25;7.00;99.90
1800;DHT22;919;48.274;12.292;2024-01-30T12:13:52;7.20;99.90
1800;DHT22;919;48.274;12.292;2024-01-30T12:16:19;7.20;99.90
1800;DHT22;919;48.274;12.292;2024-01-30T12:18:48;7.30;99.90
1800;DHT22;919;48.274;12.292;2024-01-30T12:21:16;7.50;99.90
1800;DHT22;919;48.274;12.292;2024-01-30T12:23:44;7.80;99.90
1800;DHT22;919;48.274;12.292;2024-01-30T12:26:11;7.90;99.90
1800;DHT22;919;48.274;12.292;2024-01-30T12:28:47;7.90;99.90
1800;DHT22;919;48.274;12.292;2024-01-30T12:31:14;8.00;99.90
1800;DHT22;919;48.274;12.292;2024-01-30T12:33:41;8.10;99.90
1800;DHT22;919;48.274;12.292;2024-01-30T12:36:09;8.00;99.90
1800;DHT22;919;48.274;12.292;2024-01-30T12:38:36;7.70;99.90
1800;DHT22;919;48.274;12.292;2024-01-30T12:41:03;7.60;99.90
1800;DHT22;919;48.274;12.292;2024-01-30T12:43:30;7.60;99.90
1800;DHT22;919;48.274;12.292;2024-01-30T12:45:56;7.50;99.90
1800;DHT22;919;48.274;12.292;2024-01-30T12:48:23;7.50;99.90
1800;DHT22;919;48.274;12.292;2024-01-30T12:50:51;7.50;99.90
1800;DHT22;919;48.274;12.292;2024-01-30T12:53:19;7.50;99.90
1800;DHT22;919;48.274;12.292;2024-01-30T12:55:45;7.60;99.90
1800;DHT22;919;48.274;12.292;2024-01-30T12:58:12;7.70;99.90
1800;DHT22;919;48.274;12.292;2024-01-30T13:00:39;7.90;99.90
1800;DHT22;919;48.274;12.292;2024-01-30T13:03:05;8.10;99.90
1800;DHT22;919;48.274;12.292;2024-01-30T13:05:34;8.30;99.90
1800;DHT22;919;48.274;12.292;2024-01-30T13:08:00;8.50;99.90
1800;DHT22;919;48.274;12.292;2024-01-30T13:10:28;8.70;99.90
1800;DHT22;919;48.274;12.292;2024-01-30T13:12:55;8.90;99.90
1800;DHT22;919;48.274;12.292;2024-01-30T13:15:22;8.90;99.90
1800;DHT22;919;48.274;12.292;2024-01-30T13:17:49;8.90;99.90
1800;DHT22;919;48.274;12.292;2024-01-30T13:20:16;8.90;99.90
1800;DHT22;919;48.274;12.292;2024-01-30T13:22:46;8.80;99.90
1800;DHT22;919;48.274;12.292;2024-01-30T13:25:14;8.80;99.90
1800;DHT22;919;48.274;12.292;2024-01-30T13:27:42;8.70;99.90
1800;DHT22;919;48.274;12.292;2024-01-30T13:30:09;8.60;99.90
1800;DHT22;919;48.274;12.292;2024-01-30T13:32:36;8.60;99.90
1800;DHT22;919;48.274;12.292;2024-01-30T13:35:03;8.60;99.90
1800;DHT22;919;48.274;12.292;2024-01-30T13:37:30;8.50;99.90
1800;DHT22;919;48.274;12.292;2024-01-30T13:39:57;8.50;99.90
1800;DHT22;919;48.274;12.292;2024-01-30T13:42:23;8.50;99.90
1800;DHT22;919;48.274;12.292;2024-01-30T13:44:51;8.50;99.90
1800;DHT22;919;48.274;12.292;2024-01-30T13:47:18;8.50;99.90
1800;DHT22;919;48.274;12.292;2024-01-30T13:49:46;8.40;99.90
1800;DHT22;919;48.274;12.292;2024-01-30T13:52:13;8.50;99.90
1800;DHT22;919;48.274;12.292;2024-01-30T13:54:40;8.50;99.90
1800;DHT22;919;48.274;12.292;2024-01-30T13:57:07;8.70;99.90
1800;DHT22;919;48.274;12.292;2024-01-30T13:59:34;8.80;99.90
1800;DHT22;919;48.274;12.292;2024-01-30T14:02:02;8.90;99.90
1800;DHT22;919;48.274;12.292;2024-01-30T14:04:29;9.10;99.90
1800;DHT22;919;48.274;12.292;2024-01-30T14:06:55;9.10;99.90
1800;DHT22;919;48.274;12.292;2024-01-30T14:09:22;9.10;99.90
1800;DHT22;919;48.274;12.292;2024-01-30T14:11:49;8.90;99.90
1800;DHT22;919;48.274;12.292;2024-01-30T14:14:16;8.80;99.90
1800;DHT22;919;48.274;12.292;2024-01-30T14:16:42;8.60;99.90
1800;DHT22;919;48.274;12.292;2024-01-30T14:19:11;8.60;99.90
1800;DHT22;919;48.274;12.292;2024-01-30T14:21:37;8.40;99.90
1800;DHT22;919;48.274;12.292;2024-01-30T14:24:04;8.30;99.90
1800;DHT22;919;48.274;12.292;2024-01-30T14:26:31;8.20;99.90
1800;DHT22;919;48.274;12.292;2024-01-30T14:28:58;8.00;99.90
1800;DHT22;919;48.274;12.292;2024-01-30T14:31:25;7.80;99.90
1800;DHT22;919;48.274;12.292;2024-01-30T14:33:52;7.70;99.90
1800;DHT22;919;48.274;12.292;2024-01-30T14:36:22;7.60;99.90
1800;DHT22;919;48.274;12.292;2024-01-30T14:38:53;7.50;99.90
1800;DHT22;919;48.274;12.292;2024-01-30T14:41:20;7.50;99.90
1800;DHT22;919;48.274;12.292;2024-01-30T14:43:47;7.60;99.90
1800;DHT22;919;48.274;12.292;2024-01-30T14:46:15;7.60;99.90
1800;DHT22;919;48.274;12.292;2024-01-30T14:48:41;7.70;99.90
1800;DHT22;919;48.274;12.292;2024-01-30T14:51:09;7.70;99.90
1800;DHT22;919;48.274;12.292;2024-01-30T14:53:37;7.80;99.90
1800;DHT22;919;48.274;12.292;2024-01-30T14:56:04;7.80;99.90
1800;DHT22;919;48.274;12.292;2024-01-30T14:58:31;7.90;99.90
1800;DHT22;919;48.274;12.292;2024-01-30T15:01:00;8.00;99.90
1800;DHT22;919;48.274;12.292;2024-01-30T15:03:28;8.10;99.90
1800;DHT22;919;48.274;12.292;2024-01-30T15:05:54;8.10;99.90
1800;DHT22;919;48.274;12.292;2024-01-30T15:08:22;8.00;99.90
1800;DHT22;919;48.274;12.292;2024-01-30T15:10:50;8.00;99.90
1800;DHT22;919;48.274;12.292;2024-01-30T15:13:17;7.90;99.90
1800;DHT22;919;48.274;12.292;2024-01-30T15:15:44;7.90;99.90
1800;DHT22;919;48.274;12.292;2024-01-30T15:18:10;7.80;99.90
1800;DHT22;919;48.274;12.292;2024-01-30T15:20:37;7.70;99.90
1800;DHT22;919;48.274;12.292;2024-01-30T15:23:04;7.60;99.90
1800;DHT22;919;48.274;12.292;2024-01-30T15:25:31;7.40;99.90
1800;DHT22;919;48.274;12.292;2024-01-30T15:27:59;7.20;99.90
1800;DHT22;919;48.274;12.292;2024-01-30T15:30:25;7.00;99.90
1800;DHT22;919;48.274;12.292;2024-01-30T15:32:52;6.80;99.90
1800;DHT22;919;48.274;12.292;2024-01-30T15:35:19;6.70;99.90
1800;DHT22;919;48.274;12.292;2024-01-30T15:37:46;6.50;99.90
1800;DHT22;919;48.274;12.292;2024-01-30T15:40:13;6.30;99.90
1800;DHT22;919;48.274;12.292;2024-01-30T15:42:40;6.20;99.90
1800;DHT22;919;48.274;12.292;2024-01-30T15:45:08;6.00;99.90
1800;DHT22;919;48.274;12.292;2024-01-30T15:47:35;5.80;99.90
1800;DHT22;919;48.274;12.292;2024-01-30T15:50:02;5.60;99.90
1800;DHT22;919;48.274;12.292;2024-01-30T15:52:29;5.40;99.90
1800;DHT22;919;48.274;12.292;2024-01-30T15:54:56;5.30;99.90
1800;DHT22;919;48.274;12.292;2024-01-30T15:57:22;5.10;99.90
1800;DHT22;919;48.274;12.292;2024-01-30T15:59:49;5.00;99.90
1800;DHT22;919;48.274;12.292;2024-01-30T16:02:19;4.80;99.90
1800;DHT22;919;48.274;12.292;2024-01-30T16:04:46;4.60;99.90
1800;DHT22;919;48.274;12.292;2024-01-30T16:07:12;4.40;99.90
1800;DHT22;919;48.274;12.292;2024-01-30T16:09:39;4.20;99.90